Time;durP1;ratioP1;P1;durP2;ratioP2;P2;SDS_P1;SDS_P2;PMS_P1;PMS_P2;Temp;Humidity;BMP_temperature;BMP_pressure;BME280_temperature;BME280_humidity;BME280_pressure;Samples;Min_cycle;Max_cycle;Signal;HPM_P1;HPM_P2
2021/12/21 00:00:43;;;;;;;7.85;3.13;;;;;;;;;;4971451;28;20385;-77
2021/12/21 00:03:09;;;;;;;9.73;2.80;;;;;;;;;;4970972;28;20588;-76
2021/12/21 00:05:36;;;;;;;7.38;2.83;;;;;;;;;;4971155;28;20035;-76
2021/12/21 00:08:04;;;;;;;6.30;2.90;;;;;;;;;;4971301;28;20023;-77
2021/12/21 00:10:31;;;;;;;9.43;3.17;;;;;;;;;;4971403;28;20035;-76
2021/12/21 00:13:05;;;;;;;6.93;3.00;;;;;;;;;;4974437;28;20453;-76
2021/12/21 00:18:20;;;;;;;9.02;3.60;;;;;;;;;;4974677;28;20030;-76
2021/12/21 00:25:54;;;;;;;8.50;3.15;;;;;;;;;;4974338;28;20062;-76
2021/12/21 00:28:29;;;;;;;9.00;3.13;;;;;;;;;;4974003;28;20043;-76
2021/12/21 00:30:55;;;;;;;7.38;3.15;;;;;;;;;;4974368;28;20041;-76
2021/12/21 00:33:21;;;;;;;9.10;3.38;;;;;;;;;;5005352;28;20490;-76
2021/12/21 00:35:47;;;;;;;10.60;3.53;;;;;;;;;;4974439;28;20033;-76
2021/12/21 00:38:16;;;;;;;12.40;3.80;;;;;;;;;;4974073;28;20030;-76
2021/12/21 00:40:42;;;;;;;8.38;2.95;;;;;;;;;;4974065;28;20027;-76
2021/12/21 00:43:08;;;;;;;7.15;2.88;;;;;;;;;;4974128;28;20069;-76
2021/12/21 00:45:34;;;;;;;8.57;3.22;;;;;;;;;;4974212;28;20038;-76
2021/12/21 00:47:59;;;;;;;10.25;2.95;;;;;;;;;;4974048;28;20521;-76
2021/12/21 00:50:25;;;;;;;8.07;3.30;;;;;;;;;;4974728;28;20401;-76
2021/12/21 00:52:53;;;;;;;10.88;3.55;;;;;;;;;;4974095;28;20040;-75
2021/12/21 00:55:21;;;;;;;11.60;3.55;;;;;;;;;;4973864;28;20042;-76
2021/12/21 00:57:47;;;;;;;6.88;3.10;;;;;;;;;;4973828;28;20042;-76
2021/12/21 01:00:15;;;;;;;8.80;2.88;;;;;;;;;;4973750;28;20034;-75
2021/12/21 01:02:42;;;;;;;8.25;3.10;;;;;;;;;;4973653;28;20035;-75
2021/12/21 01:05:18;;;;;;;6.95;3.03;;;;;;;;;;4973659;28;20033;-76
2021/12/21 01:07:48;;;;;;;13.38;3.30;;;;;;;;;;4973414;28;20031;-76
2021/12/21 01:12:52;;;;;;;9.02;3.70;;;;;;;;;;4973599;28;20034;-75
2021/12/21 01:15:39;;;;;;;10.70;3.80;;;;;;;;;;4974009;28;20046;-77
2021/12/21 01:18:15;;;;;;;8.75;3.85;;;;;;;;;;4973594;28;20023;-75
2021/12/21 01:21:16;;;;;;;7.65;3.38;;;;;;;;;;4973933;28;20401;-78
2021/12/21 01:26:27;;;;;;;7.47;3.35;;;;;;;;;;4973414;28;20059;-74
2021/12/21 01:29:13;;;;;;;8.18;3.40;;;;;;;;;;4973788;28;20047;-75
2021/12/21 01:31:54;;;;;;;10.50;3.33;;;;;;;;;;4973664;28;20401;-75
2021/12/21 01:36:59;;;;;;;7.88;3.35;;;;;;;;;;4973680;28;20030;-77
2021/12/21 01:42:29;;;;;;;7.68;3.72;;;;;;;;;;4990232;28;20050;-75
2021/12/21 01:50:32;;;;;;;9.40;3.92;;;;;;;;;;4978435;28;20367;-75
2021/12/21 01:52:58;;;;;;;8.15;4.13;;;;;;;;;;4978312;28;20050;-74
2021/12/21 01:55:24;;;;;;;12.43;4.70;;;;;;;;;;4978879;28;20035;-76
2021/12/21 01:57:50;;;;;;;14.95;4.88;;;;;;;;;;4980752;28;20042;-76
2021/12/21 02:00:17;;;;;;;21.70;5.70;;;;;;;;;;4982470;28;20053;-76
2021/12/21 02:02:42;;;;;;;11.02;5.35;;;;;;;;;;4981875;28;20026;-75
2021/12/21 02:05:09;;;;;;;11.27;4.72;;;;;;;;;;4978172;28;20061;-75
2021/12/21 02:07:39;;;;;;;11.50;5.38;;;;;;;;;;4977342;28;20038;-74
2021/12/21 02:10:06;;;;;;;11.07;4.57;;;;;;;;;;4977867;28;20061;-75
2021/12/21 02:12:32;;;;;;;12.45;4.65;;;;;;;;;;4979422;28;20490;-75
2021/12/21 02:15:00;;;;;;;9.95;4.50;;;;;;;;;;4980928;28;20041;-75
2021/12/21 02:20:18;;;;;;;9.63;4.38;;;;;;;;;;4985068;28;20037;-75
2021/12/21 02:22:50;;;;;;;13.98;4.95;;;;;;;;;;4984861;28;20045;-75
2021/12/21 02:30:44;;;;;;;9.75;4.50;;;;;;;;;;4995967;28;20034;-75
2021/12/21 02:33:12;;;;;;;11.23;4.93;;;;;;;;;;4972825;28;20059;-75
2021/12/21 02:35:38;;;;;;;10.48;4.70;;;;;;;;;;4971856;28;20061;-75
2021/12/21 02:38:04;;;;;;;10.82;4.40;;;;;;;;;;4972061;28;20045;-76
2021/12/21 02:40:31;;;;;;;14.05;5.50;;;;;;;;;;4972395;28;20038;-76
2021/12/21 02:42:57;;;;;;;12.32;4.53;;;;;;;;;;4972836;28;20054;-76
2021/12/21 02:45:24;;;;;;;12.15;5.18;;;;;;;;;;4972139;28;20045;-75
2021/12/21 02:47:50;;;;;;;8.32;4.57;;;;;;;;;;4972559;28;20042;-76
2021/12/21 02:50:16;;;;;;;10.45;4.32;;;;;;;;;;4972306;28;20050;-75
2021/12/21 02:52:42;;;;;;;9.82;4.38;;;;;;;;;;4972646;28;20047;-75
2021/12/21 02:55:10;;;;;;;16.60;5.05;;;;;;;;;;4972046;28;20035;-75
2021/12/21 02:57:36;;;;;;;11.55;4.88;;;;;;;;;;5002863;28;20047;-75
2021/12/21 03:05:16;;;;;;;10.65;4.40;;;;;;;;;;5146034;22;20054;-76
2021/12/21 03:10:23;;;;;;;12.63;5.18;;;;;;;;;;5010208;28;20132;-75
2021/12/21 03:15:20;;;;;;;13.00;5.18;;;;;;;;;;5010290;28;20119;-76
2021/12/21 03:17:46;;;;;;;10.45;4.85;;;;;;;;;;5010510;28;20072;-76
2021/12/21 03:20:13;;;;;;;11.23;4.70;;;;;;;;;;5010442;28;20046;-77
2021/12/21 03:22:39;;;;;;;9.82;4.55;;;;;;;;;;5010281;28;20372;-76
2021/12/21 03:25:05;;;;;;;11.32;4.50;;;;;;;;;;5010484;28;20038;-75
2021/12/21 03:27:31;;;;;;;11.05;4.55;;;;;;;;;;5010428;28;20391;-75
2021/12/21 03:29:57;;;;;;;10.43;4.75;;;;;;;;;;5010262;28;20038;-76
2021/12/21 03:32:23;;;;;;;12.75;4.53;;;;;;;;;;5009784;28;20040;-76
2021/12/21 03:34:49;;;;;;;13.20;5.00;;;;;;;;;;5005663;28;20512;-76
2021/12/21 03:37:15;;;;;;;11.27;4.70;;;;;;;;;;4991212;28;20038;-76
2021/12/21 03:39:43;;;;;;;10.13;4.40;;;;;;;;;;4990682;28;20050;-76
2021/12/21 03:42:10;;;;;;;15.27;4.60;;;;;;;;;;4991077;28;20579;-76
2021/12/21 03:44:37;;;;;;;11.18;4.43;;;;;;;;;;4989788;28;20061;-76
2021/12/21 03:47:04;;;;;;;10.80;4.63;;;;;;;;;;4993000;28;20065;-77
2021/12/21 03:52:03;;;;;;;12.05;4.97;;;;;;;;;;4993939;28;20030;-76
2021/12/21 03:54:31;;;;;;;13.70;4.57;;;;;;;;;;4994124;28;20476;-75
2021/12/21 03:56:57;;;;;;;11.60;5.05;;;;;;;;;;5009068;28;20042;-76
2021/12/21 03:59:23;;;;;;;13.98;5.28;;;;;;;;;;4994873;28;20125;-76
2021/12/21 04:01:50;;;;;;;12.45;6.13;;;;;;;;;;4994025;28;20038;-76
2021/12/21 04:04:18;;;;;;;11.13;4.80;;;;;;;;;;4994459;28;20055;-76
2021/12/21 04:06:47;;;;;;;12.10;4.78;;;;;;;;;;4993992;28;20046;-76
2021/12/21 04:09:13;;;;;;;14.45;5.32;;;;;;;;;;4993860;28;20485;-75
2021/12/21 04:11:39;;;;;;;16.35;5.10;;;;;;;;;;4992676;28;20042;-75
2021/12/21 04:14:05;;;;;;;13.73;4.88;;;;;;;;;;5001782;28;20539;-75
2021/12/21 04:16:31;;;;;;;14.65;5.47;;;;;;;;;;5013585;28;20048;-75
2021/12/21 04:18:58;;;;;;;13.10;5.55;;;;;;;;;;5013656;28;20504;-76
2021/12/21 04:21:24;;;;;;;9.32;4.50;;;;;;;;;;5013314;28;20056;-76
2021/12/21 04:23:50;;;;;;;10.95;4.90;;;;;;;;;;5012993;28;20038;-77
2021/12/21 04:26:17;;;;;;;15.38;4.95;;;;;;;;;;5013335;28;20376;-75
2021/12/21 04:28:43;;;;;;;15.43;5.68;;;;;;;;;;5012359;28;20480;-75
2021/12/21 04:31:10;;;;;;;12.70;5.20;;;;;;;;;;5013194;28;20065;-76
2021/12/21 04:33:38;;;;;;;14.05;5.55;;;;;;;;;;5012976;28;20026;-76
2021/12/21 04:36:05;;;;;;;13.70;5.30;;;;;;;;;;5012903;28;20109;-76
2021/12/21 04:38:36;;;;;;;17.27;5.47;;;;;;;;;;5012652;28;20049;-76
2021/12/21 04:41:11;;;;;;;15.90;5.18;;;;;;;;;;5012432;28;20038;-76
2021/12/21 04:43:37;;;;;;;12.95;5.28;;;;;;;;;;5011125;28;20531;-76
2021/12/21 04:46:04;;;;;;;14.82;5.47;;;;;;;;;;5012648;28;20376;-76
2021/12/21 04:48:30;;;;;;;15.20;5.85;;;;;;;;;;5011297;28;20478;-76
2021/12/21 04:50:56;;;;;;;12.02;5.10;;;;;;;;;;5011990;28;20407;-76
2021/12/21 04:53:22;;;;;;;9.27;4.90;;;;;;;;;;5012223;28;20062;-76
2021/12/21 04:55:48;;;;;;;12.40;5.35;;;;;;;;;;5011414;28;20033;-76
2021/12/21 04:58:14;;;;;;;13.52;4.90;;;;;;;;;;5014505;28;20439;-76
2021/12/21 05:00:43;;;;;;;13.65;5.35;;;;;;;;;;5011577;28;20122;-76
2021/12/21 05:03:09;;;;;;;11.57;5.55;;;;;;;;;;5013319;28;20042;-75
2021/12/21 05:05:36;;;;;;;10.93;5.47;;;;;;;;;;5011445;28;20045;-75
2021/12/21 05:08:11;;;;;;;13.65;5.57;;;;;;;;;;5012566;28;20553;-76
2021/12/21 05:10:56;;;;;;;16.05;5.90;;;;;;;;;;4989500;28;20046;-76
2021/12/21 05:13:25;;;;;;;13.35;5.05;;;;;;;;;;5015141;28;20026;-76
2021/12/21 05:15:52;;;;;;;14.40;5.63;;;;;;;;;;5013171;28;20553;-76
2021/12/21 05:18:18;;;;;;;15.20;5.63;;;;;;;;;;5012144;28;20021;-76
2021/12/21 05:20:45;;;;;;;15.43;5.95;;;;;;;;;;5012515;28;20052;-76
2021/12/21 05:23:11;;;;;;;17.17;5.82;;;;;;;;;;5002194;28;20042;-77
2021/12/21 05:25:38;;;;;;;19.90;5.50;;;;;;;;;;5007824;28;20045;-77
2021/12/21 05:28:06;;;;;;;13.45;5.70;;;;;;;;;;5011146;28;20033;-76
2021/12/21 05:30:34;;;;;;;16.80;5.65;;;;;;;;;;5005578;28;20043;-76
2021/12/21 05:33:03;;;;;;;13.73;5.25;;;;;;;;;;5014562;28;20451;-76
2021/12/21 05:35:30;;;;;;;16.88;5.60;;;;;;;;;;5006462;28;20403;-76
2021/12/21 05:38:00;;;;;;;11.02;5.32;;;;;;;;;;4993940;28;20048;-76
2021/12/21 05:40:34;;;;;;;13.35;5.15;;;;;;;;;;5010066;28;20041;-76
2021/12/21 05:43:00;;;;;;;13.02;4.95;;;;;;;;;;5011850;28;20053;-76
2021/12/21 05:45:26;;;;;;;14.65;5.50;;;;;;;;;;5006677;28;20522;-74
2021/12/21 05:47:52;;;;;;;11.98;5.40;;;;;;;;;;5001007;28;20046;-67
2021/12/21 05:50:19;;;;;;;13.45;5.50;;;;;;;;;;4993249;28;20121;-77
2021/12/21 05:52:46;;;;;;;13.10;5.53;;;;;;;;;;4992457;28;20049;-77
2021/12/21 05:55:13;;;;;;;12.77;5.20;;;;;;;;;;4994326;28;20042;-78
2021/12/21 05:57:39;;;;;;;9.48;4.85;;;;;;;;;;5006175;28;20046;-78
2021/12/21 06:00:09;;;;;;;14.82;5.80;;;;;;;;;;4995694;28;20043;-77
2021/12/21 06:02:36;;;;;;;12.70;5.93;;;;;;;;;;4996470;28;20025;-78
2021/12/21 06:05:04;;;;;;;44.97;19.17;;;;;;;;;;5011868;28;20036;-78
2021/12/21 06:07:31;;;;;;;32.30;12.45;;;;;;;;;;5000231;28;20514;-78
2021/12/21 06:09:58;;;;;;;19.02;6.07;;;;;;;;;;5006237;28;20060;-77
2021/12/21 06:28:05;;;;;;;16.90;5.20;;;;;;;;;;5001705;28;20030;-78
2021/12/21 06:30:32;;;;;;;12.93;5.25;;;;;;;;;;4994665;28;20026;-78
2021/12/21 06:32:59;;;;;;;12.07;5.32;;;;;;;;;;5003374;28;20233;-78
2021/12/21 06:35:25;;;;;;;15.85;6.20;;;;;;;;;;5002110;28;20034;-78
2021/12/21 06:37:51;;;;;;;64.95;26.80;;;;;;;;;;5004818;28;20046;-79
2021/12/21 06:40:17;;;;;;;19.13;7.47;;;;;;;;;;5003860;28;20038;-77
2021/12/21 06:42:46;;;;;;;14.43;5.55;;;;;;;;;;5010648;28;20026;-77
2021/12/21 06:45:25;;;;;;;15.82;6.72;;;;;;;;;;5006504;28;20595;-76
2021/12/21 06:53:21;;;;;;;14.38;5.25;;;;;;;;;;5012193;28;20386;-76
2021/12/21 06:55:47;;;;;;;14.20;5.38;;;;;;;;;;4996880;28;20038;-77
2021/12/21 06:58:13;;;;;;;13.30;5.90;;;;;;;;;;4993362;28;20065;-77
2021/12/21 07:00:39;;;;;;;14.45;5.95;;;;;;;;;;5006400;28;20483;-77
2021/12/21 07:03:05;;;;;;;18.20;6.50;;;;;;;;;;5006459;28;20042;-76
2021/12/21 07:05:31;;;;;;;11.68;5.25;;;;;;;;;;5003663;28;20144;-77
2021/12/21 07:07:57;;;;;;;11.95;5.32;;;;;;;;;;4995348;28;20479;-77
2021/12/21 07:10:27;;;;;;;15.85;5.18;;;;;;;;;;5005217;28;20053;-77
2021/12/21 07:18:28;;;;;;;20.88;8.30;;;;;;;;;;4994243;28;20030;-78
2021/12/21 07:20:56;;;;;;;13.90;5.63;;;;;;;;;;5010248;28;20042;-76
2021/12/21 07:23:22;;;;;;;14.73;5.47;;;;;;;;;;5015488;28;20048;-77
2021/12/21 07:25:50;;;;;;;14.88;5.95;;;;;;;;;;5019321;28;20192;-75
2021/12/21 07:28:16;;;;;;;12.82;6.07;;;;;;;;;;5023464;28;20523;-76
2021/12/21 07:30:42;;;;;;;17.58;6.13;;;;;;;;;;5020970;28;20037;-75
2021/12/21 07:33:09;;;;;;;13.35;5.95;;;;;;;;;;5016753;28;20038;-76
2021/12/21 07:35:36;;;;;;;10.82;5.13;;;;;;;;;;5013185;28;20033;-76
2021/12/21 07:38:03;;;;;;;14.32;5.80;;;;;;;;;;5009069;28;20464;-77
2021/12/21 07:40:29;;;;;;;11.38;5.35;;;;;;;;;;5014138;28;20049;-76
2021/12/21 07:42:55;;;;;;;13.13;5.68;;;;;;;;;;5014479;28;20017;-76
2021/12/21 07:45:21;;;;;;;14.23;5.75;;;;;;;;;;5003954;28;20031;-77
2021/12/21 07:47:47;;;;;;;12.98;5.82;;;;;;;;;;4994914;28;20046;-76
2021/12/21 07:50:13;;;;;;;14.68;6.03;;;;;;;;;;5006558;28;20038;-76
2021/12/21 07:52:39;;;;;;;13.82;5.13;;;;;;;;;;5012854;28;20522;-76
2021/12/21 07:55:06;;;;;;;15.13;6.15;;;;;;;;;;4972910;28;20046;-76
2021/12/21 07:57:32;;;;;;;17.42;5.50;;;;;;;;;;5010835;28;20499;-76
2021/12/21 07:59:58;;;;;;;22.13;5.65;;;;;;;;;;5011691;28;20488;-76
2021/12/21 08:02:26;;;;;;;12.70;5.00;;;;;;;;;;5012738;28;20042;-76
2021/12/21 08:04:53;;;;;;;14.27;4.78;;;;;;;;;;5011584;28;20046;-77
2021/12/21 08:07:23;;;;;;;15.77;5.40;;;;;;;;;;4988569;28;20053;-77
2021/12/21 08:09:53;;;;;;;14.60;4.85;;;;;;;;;;5013921;28;20034;-78
2021/12/21 08:12:20;;;;;;;12.93;4.95;;;;;;;;;;5011050;28;20042;-78
2021/12/21 08:14:49;;;;;;;15.35;5.38;;;;;;;;;;5007934;28;20050;-76
2021/12/21 08:17:16;;;;;;;15.23;5.68;;;;;;;;;;5009542;28;20045;-77
2021/12/21 08:19:46;;;;;;;12.40;4.90;;;;;;;;;;5010733;28;20476;-77
2021/12/21 08:22:13;;;;;;;12.15;4.32;;;;;;;;;;4993370;28;20082;-76
2021/12/21 08:24:43;;;;;;;12.23;4.78;;;;;;;;;;5006158;28;20404;-77
2021/12/21 08:27:09;;;;;;;12.00;4.90;;;;;;;;;;5008381;28;20618;-76
2021/12/21 08:29:35;;;;;;;9.50;4.55;;;;;;;;;;5015284;28;20607;-76
2021/12/21 08:32:00;;;;;;;10.27;4.95;;;;;;;;;;5012991;28;20057;-76
2021/12/21 08:34:26;;;;;;;9.40;4.72;;;;;;;;;;5013266;28;20400;-76
2021/12/21 08:36:53;;;;;;;10.75;4.53;;;;;;;;;;5010122;28;20076;-76
2021/12/21 08:39:23;;;;;;;9.57;4.80;;;;;;;;;;4999949;28;20052;-76
2021/12/21 08:41:55;;;;;;;14.60;5.25;;;;;;;;;;5011427;28;20041;-77
2021/12/21 08:44:23;;;;;;;10.38;4.68;;;;;;;;;;5013525;28;20498;-78
2021/12/21 08:46:49;;;;;;;11.77;4.68;;;;;;;;;;5012082;28;20042;-77
2021/12/21 08:49:15;;;;;;;11.30;4.70;;;;;;;;;;5010732;28;20048;-77
2021/12/21 08:51:41;;;;;;;12.07;4.50;;;;;;;;;;5009928;28;20074;-77
2021/12/21 08:54:07;;;;;;;10.82;4.68;;;;;;;;;;5009700;28;20073;-77
2021/12/21 08:56:33;;;;;;;11.73;4.97;;;;;;;;;;5010372;28;20451;-78
2021/12/21 08:58:58;;;;;;;9.98;4.57;;;;;;;;;;5006098;28;20121;-77
2021/12/21 09:01:24;;;;;;;12.13;4.97;;;;;;;;;;5011386;28;20059;-78
2021/12/21 09:03:52;;;;;;;14.30;4.60;;;;;;;;;;5012251;28;20088;-78
2021/12/21 09:06:18;;;;;;;9.52;4.55;;;;;;;;;;4958873;28;20034;-76
2021/12/21 09:08:44;;;;;;;12.57;4.80;;;;;;;;;;5013282;28;20044;-77
2021/12/21 09:11:10;;;;;;;15.40;5.35;;;;;;;;;;5002599;28;20052;-77
2021/12/21 09:13:36;;;;;;;10.68;4.68;;;;;;;;;;5009422;28;20037;-77
2021/12/21 09:16:02;;;;;;;14.27;5.10;;;;;;;;;;4999365;28;20459;-77
2021/12/21 09:18:28;;;;;;;11.50;5.13;;;;;;;;;;5002966;28;20581;-77
2021/12/21 09:20:54;;;;;;;11.85;5.47;;;;;;;;;;5006173;28;20026;-77
2021/12/21 09:23:20;;;;;;;12.52;5.45;;;;;;;;;;5001545;28;20053;-78
2021/12/21 09:25:46;;;;;;;29.67;16.15;;;;;;;;;;5005122;28;20034;-78
2021/12/21 09:28:12;;;;;;;13.55;6.03;;;;;;;;;;5014816;28;20408;-77
2021/12/21 09:30:39;;;;;;;11.15;5.25;;;;;;;;;;5007407;28;20042;-78
2021/12/21 09:33:05;;;;;;;14.00;5.95;;;;;;;;;;5011101;28;20034;-77
2021/12/21 09:35:31;;;;;;;12.55;5.25;;;;;;;;;;5012503;28;20061;-77
2021/12/21 09:37:57;;;;;;;11.77;6.13;;;;;;;;;;5011279;28;20125;-78
2021/12/21 09:40:28;;;;;;;14.18;5.53;;;;;;;;;;5007264;28;20041;-78
2021/12/21 09:42:55;;;;;;;13.80;5.93;;;;;;;;;;5012047;28;20460;-78
2021/12/21 09:45:21;;;;;;;10.43;5.70;;;;;;;;;;5009828;28;20057;-78
2021/12/21 09:47:51;;;;;;;12.30;5.63;;;;;;;;;;5007036;28;20062;-78
2021/12/21 09:50:19;;;;;;;13.05;5.65;;;;;;;;;;5010765;28;20026;-78
2021/12/21 09:52:45;;;;;;;11.15;5.25;;;;;;;;;;5015063;28;20037;-79
2021/12/21 09:55:13;;;;;;;12.35;6.00;;;;;;;;;;5014047;28;20056;-77
2021/12/21 09:57:39;;;;;;;18.08;6.18;;;;;;;;;;5013096;28;20169;-78
2021/12/21 10:00:09;;;;;;;10.98;5.25;;;;;;;;;;5007689;28;20037;-77
2021/12/21 10:02:35;;;;;;;10.80;4.97;;;;;;;;;;5013338;28;20049;-77
2021/12/21 10:05:06;;;;;;;10.35;5.00;;;;;;;;;;5012217;28;20407;-77
2021/12/21 10:07:32;;;;;;;;;;;;;;;;;;5007336;28;20052;-78
2021/12/21 10:10:18;;;;;;;12.15;4.72;;;;;;;;;;5012316;28;19913;-78
2021/12/21 10:12:46;;;;;;;11.77;4.53;;;;;;;;;;4999137;28;20049;-78
2021/12/21 10:15:20;;;;;;;12.05;4.95;;;;;;;;;;5011201;28;20479;-78
2021/12/21 10:17:59;;;;;;;10.57;5.30;;;;;;;;;;5001644;28;20046;-77
2021/12/21 10:20:35;;;;;;;11.27;4.32;;;;;;;;;;5011993;23;20049;-78
2021/12/21 10:23:27;;;;;;;12.13;4.95;;;;;;;;;;5001635;28;20518;-77
2021/12/21 10:25:57;;;;;;;10.98;4.75;;;;;;;;;;5000673;28;20403;-78
2021/12/21 10:28:34;;;;;;;12.77;4.83;;;;;;;;;;5016797;28;20061;-78
2021/12/21 10:31:04;;;;;;;13.23;5.22;;;;;;;;;;5010321;28;20032;-77
2021/12/21 10:33:30;;;;;;;12.57;5.07;;;;;;;;;;4995704;28;20033;-77
2021/12/21 10:35:59;;;;;;;9.18;4.70;;;;;;;;;;5004674;28;20403;-78
2021/12/21 10:38:30;;;;;;;17.58;6.07;;;;;;;;;;5015412;28;20049;-77
2021/12/21 10:41:06;;;;;;;15.60;6.22;;;;;;;;;;5008269;28;20014;-78
2021/12/21 10:43:32;;;;;;;10.88;5.45;;;;;;;;;;5005339;28;20041;-77
2021/12/21 10:45:58;;;;;;;15.75;7.15;;;;;;;;;;5012540;28;20402;-77
2021/12/21 10:48:24;;;;;;;14.70;5.00;;;;;;;;;;5011751;28;20495;-78
2021/12/21 10:50:51;;;;;;;9.50;4.72;;;;;;;;;;5009380;28;20050;-77
2021/12/21 10:53:23;;;;;;;13.85;4.63;;;;;;;;;;4995969;28;20042;-77
2021/12/21 10:56:22;;;;;;;11.55;5.15;;;;;;;;;;5003810;28;20045;-77
2021/12/21 10:58:48;;;;;;;10.05;4.88;;;;;;;;;;5006803;28;20030;-78
2021/12/21 11:01:20;;;;;;;12.43;4.80;;;;;;;;;;5022221;28;20048;-77
2021/12/21 11:03:51;;;;;;;12.63;5.20;;;;;;;;;;5030544;28;20049;-78
2021/12/21 11:06:24;;;;;;;11.53;5.47;;;;;;;;;;5031602;28;20037;-78
2021/12/21 11:08:54;;;;;;;12.85;5.57;;;;;;;;;;5021621;28;20054;-78
2021/12/21 11:11:28;;;;;;;14.43;4.80;;;;;;;;;;5029815;28;20491;-77
2021/12/21 11:14:19;;;;;;;11.50;5.75;;;;;;;;;;5027058;28;20046;-77
2021/12/21 11:16:50;;;;;;;20.80;8.30;;;;;;;;;;5023301;28;20495;-74
2021/12/21 11:19:23;;;;;;;19.42;7.80;;;;;;;;;;5027297;28;20037;-79
2021/12/21 11:21:50;;;;;;;14.52;5.05;;;;;;;;;;5031114;28;20029;-76
2021/12/21 11:24:19;;;;;;;16.75;5.10;;;;;;;;;;5030324;28;20038;-76
2021/12/21 11:26:48;;;;;;;11.13;5.10;;;;;;;;;;5033204;28;20038;-79
2021/12/21 11:29:18;;;;;;;12.90;5.53;;;;;;;;;;5031535;28;20046;-77
2021/12/21 11:31:48;;;;;;;10.73;5.40;;;;;;;;;;5024410;28;20034;-77
2021/12/21 11:34:20;;;;;;;14.32;5.00;;;;;;;;;;5018973;28;20049;-80
2021/12/21 11:39:39;;;;;;;11.95;5.05;;;;;;;;;;5012918;28;20038;-79
2021/12/21 11:42:07;;;;;;;12.15;6.22;;;;;;;;;;5001697;28;20031;-78
2021/12/21 11:44:51;;;;;;;15.93;6.20;;;;;;;;;;4992907;28;20404;-79
2021/12/21 11:47:27;;;;;;;14.45;6.88;;;;;;;;;;5006334;28;20455;-77
2021/12/21 11:50:01;;;;;;;13.05;5.28;;;;;;;;;;5009236;28;20042;-78
2021/12/21 11:52:28;;;;;;;14.23;5.35;;;;;;;;;;5011671;28;20038;-75
2021/12/21 11:54:58;;;;;;;16.27;6.43;;;;;;;;;;5025499;28;20042;-77
2021/12/21 11:57:41;;;;;;;13.70;5.53;;;;;;;;;;5011683;28;20514;-78
2021/12/21 12:00:15;;;;;;;16.25;8.20;;;;;;;;;;5011275;28;20395;-78
2021/12/21 12:02:42;;;;;;;12.20;5.50;;;;;;;;;;5009357;28;20052;-78
2021/12/21 12:05:22;;;;;;;12.70;5.57;;;;;;;;;;5026960;28;20053;-78
2021/12/21 12:08:02;;;;;;;13.02;5.63;;;;;;;;;;5013132;28;20029;-78
2021/12/21 12:10:29;;;;;;;13.40;5.85;;;;;;;;;;5006842;28;20484;-77
2021/12/21 12:13:09;;;;;;;13.50;5.43;;;;;;;;;;4995070;28;20042;-77
2021/12/21 12:15:53;;;;;;;10.15;4.60;;;;;;;;;;5017463;28;20373;-78
2021/12/21 12:18:27;;;;;;;12.32;4.97;;;;;;;;;;5013738;28;20376;-78
2021/12/21 12:20:55;;;;;;;12.70;5.57;;;;;;;;;;5013587;28;20041;-78
2021/12/21 12:23:24;;;;;;;11.05;5.47;;;;;;;;;;5011984;28;20069;-78
2021/12/21 12:25:57;;;;;;;10.73;5.32;;;;;;;;;;5013751;28;20137;-77
2021/12/21 12:28:33;;;;;;;11.68;5.53;;;;;;;;;;5014199;28;20468;-77
2021/12/21 12:30:59;;;;;;;15.73;6.68;;;;;;;;;;5014161;28;20065;-78
2021/12/21 12:33:39;;;;;;;12.70;5.70;;;;;;;;;;5013771;28;20037;-77
2021/12/21 12:36:06;;;;;;;14.95;5.38;;;;;;;;;;5013548;28;20045;-77
2021/12/21 12:38:42;;;;;;;12.65;5.75;;;;;;;;;;5013633;28;20384;-78
2021/12/21 12:41:12;;;;;;;14.18;6.03;;;;;;;;;;5011398;28;20495;-78
2021/12/21 12:43:44;;;;;;;13.50;5.28;;;;;;;;;;5013844;28;20038;-78
2021/12/21 12:46:22;;;;;;;17.02;5.97;;;;;;;;;;5013649;28;20038;-78
2021/12/21 12:48:48;;;;;;;12.52;5.13;;;;;;;;;;5013737;28;20026;-78
2021/12/21 12:51:42;;;;;;;10.68;4.90;;;;;;;;;;5013726;28;20034;-78
2021/12/21 12:54:20;;;;;;;10.55;5.10;;;;;;;;;;5013468;28;20042;-78
2021/12/21 12:56:46;;;;;;;10.88;5.28;;;;;;;;;;5013593;28;20423;-78
2021/12/21 12:59:12;;;;;;;11.45;5.75;;;;;;;;;;5012884;28;20038;-78
2021/12/21 13:01:40;;;;;;;10.82;4.72;;;;;;;;;;5013406;28;20129;-78
2021/12/21 13:04:09;;;;;;;13.98;5.18;;;;;;;;;;5013166;28;20045;-69
2021/12/21 13:06:37;;;;;;;14.10;4.75;;;;;;;;;;5012255;28;20042;-69
2021/12/21 13:09:09;;;;;;;12.98;5.15;;;;;;;;;;5012683;28;20050;-69
2021/12/21 13:11:37;;;;;;;13.75;5.50;;;;;;;;;;5012729;28;20038;-78
2021/12/21 13:14:03;;;;;;;13.15;5.00;;;;;;;;;;5013310;28;20030;-78
2021/12/21 13:16:32;;;;;;;12.35;5.40;;;;;;;;;;4980984;28;20041;-78
2021/12/21 13:19:05;;;;;;;15.02;4.95;;;;;;;;;;5013297;28;20042;-78
2021/12/21 13:21:34;;;;;;;13.05;5.53;;;;;;;;;;5013259;28;20045;-78
2021/12/21 13:24:14;;;;;;;10.15;4.40;;;;;;;;;;5013111;28;20045;-78
2021/12/21 13:26:50;;;;;;;9.68;4.22;;;;;;;;;;5012860;28;20420;-78
2021/12/21 13:29:21;;;;;;;10.35;4.70;;;;;;;;;;5010060;28;20060;-78
2021/12/21 13:31:50;;;;;;;14.10;4.95;;;;;;;;;;5012704;28;20045;-78
2021/12/21 13:34:18;;;;;;;8.93;3.45;;;;;;;;;;5011383;28;20040;-78
2021/12/21 13:36:45;;;;;;;7.45;3.88;;;;;;;;;;5012425;28;20047;-78
2021/12/21 13:39:20;;;;;;;10.57;3.60;;;;;;;;;;5010393;28;20379;-78
2021/12/21 13:41:57;;;;;;;11.82;3.70;;;;;;;;;;5003030;28;20034;-78
2021/12/21 13:44:25;;;;;;;10.75;4.13;;;;;;;;;;5009424;28;20692;-78
2021/12/21 13:46:53;;;;;;;7.82;3.63;;;;;;;;;;5012219;28;20038;-78
2021/12/21 13:49:19;;;;;;;10.77;4.57;;;;;;;;;;5012189;28;20045;-78
2021/12/21 13:51:56;;;;;;;8.55;3.30;;;;;;;;;;5012164;28;20030;-78
2021/12/21 13:54:23;;;;;;;7.25;3.30;;;;;;;;;;5012003;28;20038;-79
2021/12/21 13:56:51;;;;;;;13.63;4.38;;;;;;;;;;5010912;28;20525;-80
2021/12/21 13:59:18;;;;;;;11.07;3.95;;;;;;;;;;5011687;28;20038;-81
2021/12/21 14:01:47;;;;;;;9.32;4.13;;;;;;;;;;5008975;28;20038;-80
2021/12/21 14:04:16;;;;;;;10.40;4.05;;;;;;;;;;5020329;23;20096;-76
2021/12/21 14:06:44;;;;;;;9.13;3.33;;;;;;;;;;5032404;28;20410;-82
2021/12/21 14:09:12;;;;;;;12.77;3.95;;;;;;;;;;5033092;28;20045;-80
2021/12/21 14:11:40;;;;;;;9.73;3.97;;;;;;;;;;5032785;28;20049;-81
2021/12/21 14:14:17;;;;;;;9.85;3.30;;;;;;;;;;5027281;28;20034;-80
2021/12/21 14:16:54;;;;;;;7.63;3.38;;;;;;;;;;5013796;28;20139;-83
2021/12/21 14:19:22;;;;;;;7.00;3.47;;;;;;;;;;5012475;28;20403;-86
2021/12/21 14:21:54;;;;;;;7.07;3.17;;;;;;;;;;5011611;28;20034;-82
2021/12/21 14:24:21;;;;;;;;;;;;;;;;;;5008734;28;20045;-83
2021/12/21 14:26:54;;;;;;;8.10;2.85;;;;;;;;;;5012064;28;20279;-83
2021/12/21 14:29:25;;;;;;;8.85;2.90;;;;;;;;;;5013624;28;20042;-85
2021/12/21 14:32:18;;;;;;;6.95;2.90;;;;;;;;;;5010596;28;20050;-84
2021/12/21 14:34:52;;;;;;;7.55;3.15;;;;;;;;;;5012163;28;20072;-80
2021/12/21 14:37:24;;;;;;;9.57;3.40;;;;;;;;;;5013194;28;20057;-77
2021/12/21 14:39:57;;;;;;;8.45;3.15;;;;;;;;;;5022691;28;20037;-81
2021/12/21 14:42:25;;;;;;;8.48;2.72;;;;;;;;;;5031859;28;20029;-83
2021/12/21 14:44:55;;;;;;;8.30;3.53;;;;;;;;;;5029747;28;20036;-82
2021/12/21 14:47:33;;;;;;;7.53;3.00;;;;;;;;;;5031181;28;20050;-82
2021/12/21 14:50:06;;;;;;;8.77;2.80;;;;;;;;;;5028743;28;20038;-84
2021/12/21 14:52:45;;;;;;;9.68;3.03;;;;;;;;;;5022210;28;20042;-83
2021/12/21 14:55:11;;;;;;;7.40;3.03;;;;;;;;;;5030184;28;20045;-81
2021/12/21 14:57:59;;;;;;;5.85;2.88;;;;;;;;;;5025085;28;20042;-81
2021/12/21 15:00:49;;;;;;;9.57;2.83;;;;;;;;;;5011464;28;20042;-81
2021/12/21 15:03:18;;;;;;;6.60;2.70;;;;;;;;;;5000721;28;20042;-84
2021/12/21 15:05:44;;;;;;;6.70;2.80;;;;;;;;;;5010626;28;20057;-80
2021/12/21 15:08:21;;;;;;;6.15;2.85;;;;;;;;;;5011968;28;20034;-80
2021/12/21 15:10:50;;;;;;;8.20;3.03;;;;;;;;;;5011028;28;20030;-82
2021/12/21 15:13:17;;;;;;;9.13;3.00;;;;;;;;;;5010171;28;20026;-82
2021/12/21 15:15:44;;;;;;;9.27;3.08;;;;;;;;;;5011120;28;20032;-81
2021/12/21 15:18:10;;;;;;;11.48;3.42;;;;;;;;;;5010230;28;20026;-80
2021/12/21 15:20:37;;;;;;;7.13;3.05;;;;;;;;;;5010819;28;20049;-83
2021/12/21 15:23:03;;;;;;;6.70;3.10;;;;;;;;;;5009619;28;20506;-82
2021/12/21 15:25:30;;;;;;;13.38;3.95;;;;;;;;;;4994109;28;20041;-81
2021/12/21 15:27:56;;;;;;;8.88;3.40;;;;;;;;;;4974562;28;20039;-83
2021/12/21 15:30:24;;;;;;;13.55;4.05;;;;;;;;;;5004673;28;20033;-82
2021/12/21 15:32:51;;;;;;;13.50;3.85;;;;;;;;;;5009303;28;20073;-83
2021/12/21 15:35:20;;;;;;;11.50;4.80;;;;;;;;;;5010490;28;20038;-85
2021/12/21 15:37:48;;;;;;;14.88;4.95;;;;;;;;;;5007882;28;20408;-79
2021/12/21 15:40:17;;;;;;;12.50;5.15;;;;;;;;;;5006893;28;20045;-77
2021/12/21 15:42:43;;;;;;;13.60;5.40;;;;;;;;;;5011910;28;20042;-77
2021/12/21 15:45:11;;;;;;;15.80;5.10;;;;;;;;;;5003178;28;20051;-76
2021/12/21 15:47:37;;;;;;;11.43;5.60;;;;;;;;;;5012342;28;20038;-76
2021/12/21 15:50:07;;;;;;;14.15;5.20;;;;;;;;;;5012634;28;20038;-76
2021/12/21 15:52:36;;;;;;;13.63;5.22;;;;;;;;;;5010976;28;20049;-75
2021/12/21 15:55:04;;;;;;;9.95;5.53;;;;;;;;;;5011057;28;20368;-77
2021/12/21 15:57:30;;;;;;;12.05;4.75;;;;;;;;;;5009477;28;20033;-77
2021/12/21 16:00:01;;;;;;;10.23;4.70;;;;;;;;;;5016394;28;20052;-77